Time;durP1;ratioP1;P1;durP2;ratioP2;P2;SDS_P1;SDS_P2;PMS_P1;PMS_P2;Temp;Humidity;BMP_temperature;BMP_pressure;BME280_temperature;BME280_humidity;BME280_pressure;Samples;Min_cycle;Max_cycle;Signal;HPM_P1;HPM_P2
2021/08/26 00:00:00;;;;;;;9.70;5.30;;;;;;;14.18;99.32;95739.97;1047916;28;20040;-68
2021/08/26 00:00:31;;;;;;;12.77;6.30;;;;;;;14.18;98.59;95739.19;1048111;28;20020;-68
2021/08/26 00:01:09;;;;;;;10.80;5.68;;;;;;;14.11;98.42;95746.84;1048099;28;20448;-68
2021/08/26 00:06:21;;;;;;;12.38;6.32;;;;;;;14.05;99.71;95725.44;1048069;28;20028;-68
2021/08/26 00:06:53;;;;;;;10.57;5.93;;;;;;;14.05;100.00;95732.69;1048888;28;20052;-68
2021/08/26 00:07:23;;;;;;;14.20;5.78;;;;;;;14.07;99.83;95729.72;1048055;28;20028;-68
2021/08/26 00:07:54;;;;;;;12.50;6.50;;;;;;;14.08;99.72;95734.81;1048999;28;20077;-69
2021/08/26 00:08:24;;;;;;;13.50;5.97;;;;;;;14.09;99.76;95725.63;1048845;28;20496;-68
2021/08/26 00:08:55;;;;;;;10.10;5.50;;;;;;;14.08;99.27;95724.06;1048827;28;20534;-68
2021/08/26 00:09:25;;;;;;;11.00;6.30;;;;;;;14.08;99.50;95723.25;1048824;28;20105;-68
2021/08/26 00:09:57;;;;;;;12.07;6.10;;;;;;;14.07;99.57;95727.03;1048725;28;20021;-69
2021/08/26 00:10:29;;;;;;;10.77;5.22;;;;;;;14.08;99.72;95729.44;1049127;28;20017;-68
2021/08/26 00:11:00;;;;;;;9.68;5.82;;;;;;;14.06;99.73;95723.53;1044629;28;20059;-68
2021/08/26 00:11:32;;;;;;;9.73;5.82;;;;;;;14.08;99.69;95723.25;1044740;28;20033;-68
2021/08/26 00:12:03;;;;;;;12.75;5.47;;;;;;;14.11;100.00;95719.97;1040495;28;20103;-68
2021/08/26 00:12:35;;;;;;;9.43;5.83;;;;;;;14.09;100.00;95727.53;1041693;28;20167;-68
2021/08/26 00:13:07;;;;;;;15.25;5.97;;;;;;;14.10;100.00;95719.16;1048749;28;20026;-69
2021/08/26 00:13:37;;;;;;;11.13;6.55;;;;;;;14.04;100.00;95718.47;1045413;28;20091;-68
2021/08/26 00:14:07;;;;;;;9.80;5.77;;;;;;;14.07;100.00;95722.44;1048738;28;20055;-68
2021/08/26 00:14:38;;;;;;;9.23;5.70;;;;;;;14.07;100.00;95719.75;1048819;28;20389;-68
2021/08/26 00:15:09;;;;;;;11.27;6.20;;;;;;;14.07;100.00;95727.03;1048821;28;20020;-69
2021/08/26 00:15:40;;;;;;;14.27;6.37;;;;;;;14.04;100.00;95723.84;1044507;28;20025;-68
2021/08/26 00:16:11;;;;;;;10.27;5.85;;;;;;;14.09;100.00;95722.16;1036270;28;20465;-68
2021/08/26 00:16:42;;;;;;;12.60;5.97;;;;;;;14.05;100.00;95721.94;1036455;28;20026;-68
2021/08/26 00:17:13;;;;;;;10.87;6.27;;;;;;;14.01;100.00;95716.38;1036685;28;20390;-69
2021/08/26 00:17:45;;;;;;;11.93;6.20;;;;;;;14.01;100.00;95719.06;1037392;28;20427;-69
2021/08/26 00:18:16;;;;;;;10.40;5.75;;;;;;;14.03;100.00;95716.88;1044230;28;20120;-69
2021/08/26 00:18:47;;;;;;;13.45;6.20;;;;;;;14.02;100.00;95719.84;1044696;28;20503;-68
2021/08/26 00:19:19;;;;;;;10.50;6.00;;;;;;;14.01;100.00;95724.44;1044593;28;20028;-68
2021/08/26 00:19:51;;;;;;;13.43;6.05;;;;;;;13.98;100.00;95713.50;1044430;28;20053;-68
2021/08/26 00:20:22;;;;;;;10.15;5.82;;;;;;;14.00;100.00;95714.00;1040249;28;20080;-68
2021/08/26 00:20:53;;;;;;;14.23;6.27;;;;;;;13.99;100.00;95717.78;1040554;28;20112;-68
2021/08/26 00:21:23;;;;;;;10.23;5.68;;;;;;;13.96;100.00;95721.84;1036326;28;20028;-68
2021/08/26 00:21:53;;;;;;;11.30;5.57;;;;;;;13.97;100.00;95720.78;1036904;28;20033;-68
2021/08/26 00:22:24;;;;;;;10.17;5.97;;;;;;;13.97;100.00;95714.56;1044484;28;20025;-68
2021/08/26 00:22:54;;;;;;;9.43;5.70;;;;;;;13.97;100.00;95717.25;1044588;28;20035;-68
2021/08/26 00:23:25;;;;;;;10.57;5.77;;;;;;;13.96;100.00;95713.00;1040489;28;20033;-68
2021/08/26 00:23:55;;;;;;;9.83;5.80;;;;;;;13.93;100.00;95722.44;1040501;28;20029;-68
2021/08/26 00:24:26;;;;;;;9.10;5.30;;;;;;;13.93;100.00;95725.13;1040430;28;20076;-68
2021/08/26 00:24:56;;;;;;;14.23;5.90;;;;;;;13.92;100.00;95717.34;1040533;28;20048;-68
2021/08/26 00:25:27;;;;;;;11.37;6.30;;;;;;;13.89;100.00;95710.69;1044531;28;20072;-68
2021/08/26 00:25:57;;;;;;;12.03;5.47;;;;;;;13.90;100.00;95714.97;1044284;28;20021;-68
2021/08/26 00:26:31;;;;;;;12.60;6.63;;;;;;;13.91;100.00;95721.13;1040376;28;20032;-68
2021/08/26 00:27:02;;;;;;;11.52;5.95;;;;;;;13.89;100.00;95717.97;1036898;28;20115;-68
2021/08/26 00:27:33;;;;;;;12.60;6.17;;;;;;;13.88;100.00;95719.84;1036415;28;20529;-68
2021/08/26 00:28:04;;;;;;;11.70;6.32;;;;;;;13.89;100.00;95717.97;1032933;28;20022;-68
2021/08/26 00:28:34;;;;;;;12.03;5.90;;;;;;;13.91;100.00;95703.13;1032419;28;20388;-68
2021/08/26 00:29:05;;;;;;;10.90;6.27;;;;;;;13.84;100.00;95708.09;1036655;28;20037;-68
2021/08/26 00:29:35;;;;;;;10.57;5.90;;;;;;;13.82;100.00;95713.00;1036607;28;20498;-68
2021/08/26 00:30:06;;;;;;;10.47;5.67;;;;;;;13.78;100.00;95720.03;1040570;28;20026;-68
2021/08/26 00:30:36;;;;;;;10.23;5.53;;;;;;;13.73;100.00;95720.94;1040326;28;20581;-68
2021/08/26 00:31:07;;;;;;;11.17;5.63;;;;;;;13.72;100.00;95719.34;1040507;28;20410;-68
2021/08/26 00:31:37;;;;;;;9.80;5.33;;;;;;;13.71;100.00;95719.63;1040514;28;20029;-68
2021/08/26 00:32:08;;;;;;;12.03;5.90;;;;;;;13.67;100.00;95713.28;1040492;28;20029;-68
2021/08/26 00:32:38;;;;;;;9.50;5.40;;;;;;;13.64;100.00;95717.31;1044212;28;20025;-68
2021/08/26 00:33:09;;;;;;;10.07;5.87;;;;;;;13.61;100.00;95709.06;1040498;28;20842;-68
2021/08/26 00:33:39;;;;;;;9.53;5.17;;;;;;;13.59;100.00;95716.63;1044640;28;20013;-68
2021/08/26 00:34:10;;;;;;;10.03;5.53;;;;;;;13.57;100.00;95711.56;1044599;28;20116;-68
2021/08/26 00:34:40;;;;;;;9.27;5.70;;;;;;;13.51;100.00;95715.41;1040453;28;20036;-68
2021/08/26 00:35:11;;;;;;;9.47;5.23;;;;;;;13.49;100.00;95712.22;1044569;28;20025;-68
2021/08/26 00:35:41;;;;;;;10.10;5.50;;;;;;;13.46;100.00;95719.00;1044562;28;20414;-68
2021/08/26 00:36:11;;;;;;;11.03;5.90;;;;;;;13.47;100.00;95717.91;1044563;28;20462;-68
2021/08/26 00:36:42;;;;;;;10.97;6.23;;;;;;;13.46;100.00;95707.44;1044829;28;20025;-68
2021/08/26 00:37:12;;;;;;;7.90;4.97;;;;;;;13.41;100.00;95712.88;1044937;28;20025;-68
2021/08/26 00:37:43;;;;;;;9.40;5.47;;;;;;;13.45;100.00;95709.31;1044824;28;20040;-67
2021/08/26 00:38:13;;;;;;;10.87;5.17;;;;;;;13.44;100.00;95715.00;1044918;28;20013;-67
2021/08/26 00:38:45;;;;;;;11.73;5.63;;;;;;;13.44;100.00;95713.09;1044851;28;20029;-67
2021/08/26 00:39:15;;;;;;;11.43;5.60;;;;;;;13.41;100.00;95710.19;1044901;28;20107;-66
2021/08/26 00:39:46;;;;;;;10.83;5.80;;;;;;;13.41;100.00;95707.53;1044922;28;20040;-67
2021/08/26 00:40:16;;;;;;;10.63;5.40;;;;;;;13.44;100.00;95707.75;1044810;28;20021;-67
2021/08/26 00:40:47;;;;;;;9.87;5.60;;;;;;;13.46;100.00;95712.81;1044798;28;20024;-67
2021/08/26 00:41:18;;;;;;;9.02;5.68;;;;;;;13.48;100.00;95706.06;1044447;28;20463;-66
2021/08/26 00:41:49;;;;;;;11.40;6.10;;;;;;;13.49;100.00;95704.16;1044890;28;20033;-66
2021/08/26 00:42:20;;;;;;;18.48;5.38;;;;;;;13.50;100.00;95711.91;1040462;28;20013;-66
2021/08/26 00:42:51;;;;;;;11.23;5.13;;;;;;;13.47;100.00;95703.69;1036298;28;20026;-67
2021/08/26 00:43:21;;;;;;;14.13;5.03;;;;;;;13.50;100.00;95703.06;1036317;28;20057;-67
2021/08/26 00:43:51;;;;;;;12.40;5.93;;;;;;;13.52;100.00;95700.91;1032475;28;20084;-66
2021/08/26 00:44:22;;;;;;;12.70;5.57;;;;;;;13.47;100.00;95695.63;1040502;28;20079;-67
2021/08/26 00:44:52;;;;;;;10.87;5.40;;;;;;;13.45;100.00;95703.16;1044539;28;20041;-68
2021/08/26 00:45:23;;;;;;;11.63;5.67;;;;;;;13.45;100.00;95703.16;1044464;28;20065;-67
2021/08/26 00:45:53;;;;;;;9.10;5.57;;;;;;;13.45;100.00;95703.97;1044795;28;20380;-67
2021/08/26 00:46:25;;;;;;;11.40;5.77;;;;;;;13.45;100.00;95697.78;1040340;28;20025;-67
2021/08/26 00:46:55;;;;;;;9.48;5.32;;;;;;;13.47;100.00;95701.78;1040335;28;20068;-67
2021/08/26 00:47:25;;;;;;;12.63;5.93;;;;;;;13.50;100.00;95695.03;1036229;28;20025;-67
2021/08/26 00:47:56;;;;;;;8.67;5.03;;;;;;;13.49;100.00;95704.97;1032124;28;20030;-67
2021/08/26 00:48:26;;;;;;;9.60;5.50;;;;;;;13.51;100.00;95693.91;1028252;28;20023;-67
2021/08/26 00:48:57;;;;;;;10.13;5.67;;;;;;;13.49;100.00;95696.13;1028298;28;20023;-68
2021/08/26 00:49:33;;;;;;;9.13;5.37;;;;;;;13.48;100.00;95691.84;1028225;28;20030;-68
2021/08/26 00:50:04;;;;;;;10.05;5.32;;;;;;;13.48;100.00;95694.53;1037146;28;20061;-68
2021/08/26 00:50:34;;;;;;;13.40;5.77;;;;;;;13.49;100.00;95683.50;1036283;28;20026;-67
2021/08/26 00:51:04;;;;;;;11.37;5.17;;;;;;;13.49;100.00;95690.75;1037784;28;20022;-68
2021/08/26 00:51:35;;;;;;;9.33;5.87;;;;;;;13.47;100.00;95688.38;1044115;28;20028;-68
2021/08/26 00:52:09;;;;;;;10.80;5.80;;;;;;;13.48;100.00;95689.16;1040404;28;20022;-68
2021/08/26 00:52:39;;;;;;;10.05;5.47;;;;;;;13.46;100.00;95694.00;1040906;28;20018;-68
2021/08/26 00:53:10;;;;;;;8.50;4.83;;;;;;;13.45;100.00;95692.44;1044483;28;20041;-68
2021/08/26 00:53:40;;;;;;;10.17;5.30;;;;;;;13.42;100.00;95696.50;1036848;28;20029;-68
2021/08/26 00:54:11;;;;;;;10.97;5.33;;;;;;;13.41;100.00;95684.19;1036277;28;20060;-68
2021/08/26 00:54:41;;;;;;;8.93;5.30;;;;;;;13.43;100.00;95684.69;1036351;28;20116;-68
2021/08/26 00:55:13;;;;;;;10.47;5.50;;;;;;;13.42;100.00;95685.78;1036267;28;20022;-68
2021/08/26 00:55:43;;;;;;;9.77;5.63;;;;;;;13.40;100.00;95682.56;1044276;28;20083;-68
2021/08/26 00:56:14;;;;;;;10.97;5.80;;;;;;;13.40;100.00;95685.25;1044263;28;20078;-68
2021/08/26 00:56:44;;;;;;;12.10;5.87;;;;;;;13.38;100.00;95681.28;1040281;28;20417;-68
2021/08/26 00:57:15;;;;;;;9.77;5.70;;;;;;;13.36;100.00;95680.75;1040325;28;20026;-68
2021/08/26 00:57:45;;;;;;;9.13;5.50;;;;;;;13.32;100.00;95679.78;1040530;28;20018;-68
2021/08/26 00:58:16;;;;;;;12.13;5.50;;;;;;;13.33;100.00;95676.78;1044459;28;20474;-68
2021/08/26 00:58:47;;;;;;;9.20;5.43;;;;;;;13.36;100.00;95683.44;1044542;28;20135;-68
2021/08/26 00:59:17;;;;;;;9.83;5.67;;;;;;;13.34;100.00;95678.38;1040310;28;20022;-68
2021/08/26 00:59:47;;;;;;;11.17;5.90;;;;;;;13.33;100.00;95670.63;1028131;28;20097;-68
2021/08/26 01:00:18;;;;;;;11.83;5.33;;;;;;;13.33;100.00;95676.00;1028217;28;20038;-68
2021/08/26 01:00:55;;;;;;;10.73;5.67;;;;;;;13.34;100.00;95678.38;1028027;28;20018;-68
2021/08/26 01:01:27;;;;;;;8.35;5.32;;;;;;;13.28;100.00;95676.88;1029670;28;20142;-68
2021/08/26 01:02:29;;;;;;;9.20;5.25;;;;;;;13.26;100.00;95682.56;1036167;28;20493;-68
2021/08/26 01:03:11;;;;;;;10.05;5.70;;;;;;;13.20;100.00;95678.31;1043226;28;20041;-68
2021/08/26 01:03:49;;;;;;;9.60;5.75;;;;;;;13.16;100.00;95679.22;1044710;28;20068;-68
2021/08/26 01:04:35;;;;;;;11.73;5.85;;;;;;;13.11;100.00;95682.78;1044488;28;20438;-68
2021/08/26 01:05:23;;;;;;;11.07;5.50;;;;;;;13.08;100.00;95677.19;1040403;28;20112;-68
2021/08/26 01:05:54;;;;;;;13.43;5.10;;;;;;;13.12;100.00;95678.19;1032378;28;20034;-68
2021/08/26 01:06:26;;;;;;;13.55;5.65;;;;;;;13.12;100.00;95680.88;1036248;28;20097;-68
2021/08/26 01:07:07;;;;;;;10.95;5.80;;;;;;;13.13;100.00;95677.09;1030881;28;20032;-68
2021/08/26 01:07:47;;;;;;;10.73;5.72;;;;;;;13.14;100.00;95673.31;1036454;28;20542;-68
2021/08/26 01:08:21;;;;;;;;;;;;;;;13.18;100.00;95674.34;1032223;28;20030;-68
2021/08/26 01:08:53;;;;;;;9.15;5.15;;;;;;;13.18;100.00;95672.44;1035231;28;20314;-68
2021/08/26 01:09:31;;;;;;;10.95;5.60;;;;;;;13.20;100.00;95667.56;1038244;28;20467;-68
2021/08/26 01:10:04;;;;;;;9.77;5.57;;;;;;;13.19;100.00;95668.66;1038493;28;20057;-68
2021/08/26 01:10:36;;;;;;;11.05;5.88;;;;;;;13.20;100.00;95667.56;1036184;28;20026;-68
2021/08/26 01:11:06;;;;;;;10.63;5.80;;;;;;;13.16;100.00;95669.28;1036250;28;20441;-67
2021/08/26 01:11:44;;;;;;;9.75;5.43;;;;;;;13.15;100.00;95672.22;1034961;28;20041;-68
2021/08/26 01:12:17;;;;;;;10.15;5.78;;;;;;;13.14;100.00;95670.66;1033372;28;20383;-68
2021/08/26 01:12:47;;;;;;;10.80;5.30;;;;;;;13.12;100.00;95664.78;1032203;28;20144;-68
2021/08/26 01:13:18;;;;;;;9.37;5.73;;;;;;;13.13;100.00;95669.06;1036298;28;20137;-68
2021/08/26 01:13:48;;;;;;;11.10;6.00;;;;;;;13.11;100.00;95666.69;1036716;28;20022;-68
2021/08/26 01:14:19;;;;;;;12.53;6.63;;;;;;;13.10;100.00;95672.31;1032531;28;20018;-68
2021/08/26 01:14:53;;;;;;;9.80;5.67;;;;;;;13.14;100.00;95668.75;1036305;28;20383;-68
2021/08/26 01:15:24;;;;;;;10.27;5.55;;;;;;;13.15;100.00;95670.34;1032114;28;20014;-68
2021/08/26 01:16:08;;;;;;;12.05;6.05;;;;;;;13.18;100.00;95661.72;1033713;28;20030;-68
2021/08/26 01:16:38;;;;;;;10.63;5.63;;;;;;;13.20;100.00;95672.16;1040256;28;20021;-68
2021/08/26 01:17:09;;;;;;;12.97;5.63;;;;;;;13.20;100.00;95670.25;1042407;28;20037;-68
2021/08/26 01:17:42;;;;;;;9.37;5.40;;;;;;;13.24;100.00;95673.97;1044324;28;20029;-68
2021/08/26 01:18:13;;;;;;;10.10;5.40;;;;;;;13.25;100.00;95669.41;1040227;28;20421;-68
2021/08/26 01:18:45;;;;;;;12.17;5.87;;;;;;;13.31;100.00;95678.16;1040262;28;20044;-68
2021/08/26 01:19:15;;;;;;;10.20;5.75;;;;;;;13.30;100.00;95677.38;1040912;28;20026;-68
2021/08/26 01:19:47;;;;;;;11.47;5.60;;;;;;;13.31;100.00;95678.16;1044304;28;20029;-68
2021/08/26 01:20:18;;;;;;;9.75;5.70;;;;;;;13.27;100.00;95680.66;1044586;28;20056;-68
2021/08/26 01:20:48;;;;;;;12.07;5.80;;;;;;;13.24;100.00;95673.19;1044622;28;20106;-68
2021/08/26 01:21:21;;;;;;;11.67;6.23;;;;;;;13.23;100.00;95679.66;1044687;28;20069;-67
2021/08/26 01:21:51;;;;;;;9.70;5.63;;;;;;;13.24;100.00;95673.19;1044378;28;20580;-68
2021/08/26 01:22:22;;;;;;;10.23;5.90;;;;;;;13.26;100.00;95679.06;1044699;28;20112;-68
2021/08/26 01:22:52;;;;;;;10.77;5.80;;;;;;;13.27;100.00;95672.63;1044697;28;20028;-68
2021/08/26 01:23:23;;;;;;;10.70;6.13;;;;;;;13.26;100.00;95673.72;1044376;28;20029;-68
2021/08/26 01:24:01;;;;;;;11.90;6.33;;;;;;;13.23;100.00;95674.28;1040259;28;20032;-68
2021/08/26 01:24:32;;;;;;;12.60;5.63;;;;;;;13.27;100.00;95673.41;1040252;28;20029;-68
2021/08/26 01:25:06;;;;;;;10.67;5.87;;;;;;;13.21;100.00;95679.97;1036168;28;20364;-68
2021/08/26 01:25:42;;;;;;;11.25;5.93;;;;;;;13.20;100.00;95677.50;1035549;28;20026;-68
2021/08/26 01:26:14;;;;;;;18.67;6.63;;;;;;;13.15;100.00;95681.06;1036153;28;20105;-69
2021/08/26 01:26:51;;;;;;;13.57;6.35;;;;;;;13.12;100.00;95684.38;1031930;28;20022;-68
2021/08/26 01:27:23;;;;;;;11.88;6.50;;;;;;;13.06;100.00;95679.38;1033872;28;20454;-68
2021/08/26 01:27:57;;;;;;;11.73;6.65;;;;;;;13.08;100.00;95680.66;1033484;28;20145;-68
2021/08/26 01:28:27;;;;;;;15.18;6.55;;;;;;;13.01;100.00;95681.03;1039420;28;20164;-68
2021/08/26 01:28:58;;;;;;;13.40;5.93;;;;;;;12.96;100.00;95675.75;1040231;28;20121;-68
2021/08/26 01:29:28;;;;;;;18.60;6.33;;;;;;;12.93;100.00;95672.84;1040974;28;20033;-68
2021/08/26 01:29:59;;;;;;;10.60;6.10;;;;;;;12.91;100.00;95681.22;1040229;28;20018;-68
2021/08/26 01:30:30;;;;;;;10.20;5.97;;;;;;;12.87;100.00;95682.06;1036156;28;20029;-68
2021/08/26 01:31:02;;;;;;;13.07;6.38;;;;;;;12.86;100.00;95678.59;1036343;28;20052;-68
2021/08/26 01:31:32;;;;;;;10.60;6.43;;;;;;;12.83;100.00;95678.38;1035968;28;20026;-68
2021/08/26 01:32:03;;;;;;;9.93;5.47;;;;;;;12.80;100.00;95678.97;1032524;28;20134;-68
2021/08/26 01:32:33;;;;;;;12.00;6.33;;;;;;;12.81;100.00;95678.69;1036485;28;20467;-68
2021/08/26 01:33:04;;;;;;;16.37;6.17;;;;;;;12.82;100.00;95676.78;1036237;28;20094;-68
2021/08/26 01:33:34;;;;;;;12.70;6.60;;;;;;;12.83;100.00;95679.16;1040078;28;20112;-68
2021/08/26 01:34:05;;;;;;;10.87;5.90;;;;;;;12.88;100.00;95672.94;1036052;28;20030;-68
2021/08/26 01:34:35;;;;;;;10.97;5.90;;;;;;;12.84;100.00;95678.06;1032176;28;20022;-68
2021/08/26 01:35:06;;;;;;;11.70;6.60;;;;;;;12.85;100.00;95677.00;1024168;28;20397;-68
2021/08/26 01:35:36;;;;;;;10.20;5.90;;;;;;;12.87;100.00;95674.81;1028339;28;20486;-68
2021/08/26 01:36:07;;;;;;;10.77;5.90;;;;;;;12.86;100.00;95678.59;1028208;28;20034;-68
2021/08/26 01:36:37;;;;;;;12.40;6.00;;;;;;;12.87;100.00;95674.81;1032284;28;20022;-68
2021/08/26 01:37:07;;;;;;;13.20;6.57;;;;;;;12.94;100.00;95677.13;1040186;28;20018;-68
2021/08/26 01:37:38;;;;;;;11.47;6.80;;;;;;;12.93;100.00;95672.84;1040381;28;20037;-68
2021/08/26 01:38:09;;;;;;;13.27;6.32;;;;;;;12.94;100.00;95677.13;1044230;28;20112;-68
2021/08/26 01:38:39;;;;;;;10.10;6.23;;;;;;;12.88;100.00;95673.72;1040640;28;20540;-68
2021/08/26 01:39:11;;;;;;;11.93;6.63;;;;;;;12.85;100.00;95677.00;1040502;28;20021;-68
2021/08/26 01:39:59;;;;;;;11.63;6.10;;;;;;;12.84;100.00;95672.72;1040563;28;20490;-68
2021/08/26 01:40:42;;;;;;;12.00;6.40;;;;;;;12.87;100.00;95674.03;1040483;28;20030;-68
2021/08/26 01:41:16;;;;;;;10.70;6.05;;;;;;;12.88;100.00;95671.06;1040300;28;20119;-68
2021/08/26 01:41:50;;;;;;;10.25;6.45;;;;;;;12.86;100.00;95664.41;1042164;28;20112;-68
2021/08/26 01:42:21;;;;;;;13.95;6.35;;;;;;;12.81;100.00;95662.59;1044458;28;20086;-68
2021/08/26 01:42:52;;;;;;;12.45;6.80;;;;;;;12.79;100.00;95670.09;1044330;28;20029;-68
2021/08/26 01:43:23;;;;;;;12.23;6.30;;;;;;;12.81;100.00;95661.78;1044272;28;20020;-68
2021/08/26 01:43:53;;;;;;;11.65;6.82;;;;;;;12.83;100.00;95662.28;1040241;28;20453;-68
2021/08/26 01:44:26;;;;;;;11.30;6.87;;;;;;;12.82;100.00;95668.75;1040513;28;20048;-68
2021/08/26 01:44:59;;;;;;;12.77;6.68;;;;;;;12.77;100.00;95658.88;1044372;28;20021;-68
2021/08/26 01:45:29;;;;;;;11.55;6.22;;;;;;;12.77;100.00;95660.78;1044184;28;20029;-68
2021/08/26 01:46:00;;;;;;;13.47;7.40;;;;;;;12.76;100.00;95659.97;1044431;28;20021;-68
2021/08/26 01:46:30;;;;;;;11.37;6.23;;;;;;;12.75;100.00;95659.19;1044253;28;20401;-68
2021/08/26 01:47:08;;;;;;;12.00;6.60;;;;;;;12.75;100.00;95656.50;1044281;28;20087;-68
2021/08/26 01:47:39;;;;;;;14.85;7.25;;;;;;;12.75;100.00;95656.50;1044271;28;20025;-68
2021/08/26 01:48:11;;;;;;;13.15;6.80;;;;;;;12.79;100.00;95656.69;1044254;28;20461;-68
2021/08/26 01:48:44;;;;;;;12.73;6.82;;;;;;;12.84;100.00;95655.81;1040223;28;20112;-68
2021/08/26 01:49:14;;;;;;;11.88;6.25;;;;;;;12.89;100.00;95656.53;1040857;28;20490;-68
2021/08/26 01:49:48;;;;;;;9.53;6.03;;;;;;;12.90;100.00;95658.16;1044259;28;20071;-68
2021/08/26 01:50:18;;;;;;;15.75;6.60;;;;;;;12.97;100.00;95657.78;1044305;28;20021;-68
2021/08/26 01:50:49;;;;;;;11.67;6.20;;;;;;;12.99;100.00;95650.22;1044660;28;20029;-68
2021/08/26 01:51:20;;;;;;;10.93;6.10;;;;;;;12.98;100.00;95659.38;1044260;28;20048;-68
2021/08/26 01:51:50;;;;;;;10.33;6.10;;;;;;;12.97;100.00;95655.09;1043926;28;20052;-68
2021/08/26 01:52:23;;;;;;;12.27;6.20;;;;;;;12.94;100.00;95651.09;1044308;28;20512;-68
2021/08/26 01:52:54;;;;;;;11.48;6.65;;;;;;;12.95;100.00;95654.59;1044285;28;20025;-68
2021/08/26 01:53:24;;;;;;;16.53;6.93;;;;;;;12.93;100.00;95657.56;1044557;28;20025;-68
2021/08/26 01:53:55;;;;;;;11.67;6.77;;;;;;;12.91;100.00;95657.06;1044661;28;20036;-68
2021/08/26 01:54:26;;;;;;;11.57;7.10;;;;;;;12.88;100.00;95651.47;1044233;28;20017;-68
2021/08/26 01:55:00;;;;;;;12.43;6.03;;;;;;;12.88;100.00;95644.22;1044315;28;20037;-68
2021/08/26 01:55:31;;;;;;;11.93;6.97;;;;;;;12.91;100.00;95646.34;1044168;28;20025;-68
2021/08/26 01:56:01;;;;;;;12.93;6.60;;;;;;;12.92;100.00;95647.94;1044215;28;20021;-68
2021/08/26 01:56:32;;;;;;;13.60;6.63;;;;;;;12.91;100.00;95648.22;1044690;28;20020;-69
2021/08/26 01:57:03;;;;;;;10.60;6.23;;;;;;;12.91;100.00;95654.38;1044651;28;20066;-68
2021/08/26 01:57:33;;;;;;;11.73;6.43;;;;;;;12.92;100.00;95642.56;1044363;28;20095;-68
2021/08/26 01:58:04;;;;;;;13.37;6.90;;;;;;;12.96;100.00;95648.16;1044319;28;20033;-68
2021/08/26 01:58:34;;;;;;;14.63;6.40;;;;;;;12.94;100.00;95644.94;1040081;28;20022;-68
2021/08/26 01:59:04;;;;;;;12.90;6.43;;;;;;;12.99;100.00;95642.97;1039774;28;20044;-68
2021/08/26 01:59:35;;;;;;;13.63;7.17;;;;;;;13.01;100.00;95656.91;1044419;28;20043;-68
2021/08/26 02:00:06;;;;;;;11.40;6.60;;;;;;;13.01;100.00;95653.44;1044304;28;20067;-68
2021/08/26 02:00:37;;;;;;;12.05;6.43;;;;;;;13.06;100.00;95644.50;1044191;28;20025;-68
2021/08/26 02:01:08;;;;;;;10.45;5.85;;;;;;;13.11;100.00;95647.09;1040193;28;20057;-68
2021/08/26 02:01:38;;;;;;;12.17;6.80;;;;;;;13.13;100.00;95650.28;1040264;28;20021;-68
2021/08/26 02:02:09;;;;;;;12.33;6.70;;;;;;;13.17;100.00;95648.59;1040060;28;20025;-68
2021/08/26 02:02:39;;;;;;;10.73;6.03;;;;;;;13.12;100.00;95643.31;1044272;28;20029;-68
2021/08/26 02:03:09;;;;;;;13.20;6.53;;;;;;;13.16;100.00;95649.69;1040527;28;20018;-68
2021/08/26 02:03:40;;;;;;;11.57;6.80;;;;;;;13.17;100.00;95646.72;1040195;28;20467;-68
2021/08/26 02:04:10;;;;;;;10.70;6.47;;;;;;;13.16;100.00;95641.66;1040124;28;20017;-68
2021/08/26 02:04:41;;;;;;;13.10;6.83;;;;;;;13.19;100.00;95647.22;1040225;28;20017;-68
2021/08/26 02:05:11;;;;;;;14.67;7.23;;;;;;;13.22;100.00;95646.66;1040243;28;20013;-68
2021/08/26 02:05:42;;;;;;;11.27;6.53;;;;;;;13.26;100.00;95649.56;1040527;28;20118;-68
2021/08/26 02:06:12;;;;;;;12.07;6.63;;;;;;;13.26;100.00;95650.34;1040483;28;20025;-68
2021/08/26 02:06:43;;;;;;;10.37;6.30;;;;;;;13.30;100.00;95652.44;1040461;28;20134;-68
2021/08/26 02:07:13;;;;;;;11.47;6.27;;;;;;;13.27;100.00;95648.47;1040485;28;20050;-68
2021/08/26 02:07:47;;;;;;;12.93;6.77;;;;;;;13.29;100.00;95650.84;1040497;28;20056;-68
2021/08/26 02:08:17;;;;;;;13.13;6.82;;;;;;;13.21;100.00;95652.28;1040465;28;20048;-68
2021/08/26 02:08:48;;;;;;;13.50;7.37;;;;;;;13.24;100.00;95649.84;1041908;28;20026;-68
2021/08/26 02:09:18;;;;;;;11.60;6.60;;;;;;;13.27;100.00;95653.81;1044600;28;20016;-68
2021/08/26 02:09:49;;;;;;;12.07;7.07;;;;;;;13.30;100.00;95650.53;1044605;28;20487;-68
2021/08/26 02:10:19;;;;;;;13.53;7.53;;;;;;;13.32;100.00;95656.41;1044279;28;20458;-68
2021/08/26 02:10:49;;;;;;;16.77;7.47;;;;;;;13.32;100.00;95650.25;1044335;28;20029;-68
2021/08/26 02:11:20;;;;;;;11.40;7.00;;;;;;;13.30;100.00;95645.16;1044292;28;20017;-68
2021/08/26 02:11:50;;;;;;;13.40;6.60;;;;;;;13.32;100.00;95650.25;1044279;28;20017;-68
2021/08/26 02:12:21;;;;;;;11.07;7.00;;;;;;;13.30;100.00;95652.44;1044227;28;20029;-68
2021/08/26 02:12:51;;;;;;;11.83;6.93;;;;;;;13.32;100.00;95651.06;1044237;28;20040;-68
2021/08/26 02:13:21;;;;;;;14.17;7.23;;;;;;;13.32;100.00;95650.25;1040202;28;20025;-68
2021/08/26 02:13:52;;;;;;;11.60;6.97;;;;;;;13.26;100.00;95655.72;1039908;28;20075;-68
2021/08/26 02:14:22;;;;;;;11.70;7.20;;;;;;;13.27;100.00;95649.25;1044262;28;20075;-67
2021/08/26 02:14:53;;;;;;;12.47;7.40;;;;;;;13.30;100.00;95653.22;1040244;28;20021;-67
2021/08/26 02:15:23;;;;;;;13.20;7.40;;;;;;;13.34;100.00;95645.38;1044303;28;20017;-67
2021/08/26 02:15:53;;;;;;;11.67;7.77;;;;;;;13.34;100.00;95651.53;1040189;28;20025;-68
2021/08/26 02:16:24;;;;;;;12.30;7.17;;;;;;;13.33;100.00;95655.31;1040269;28;20609;-68
2021/08/26 02:16:54;;;;;;;14.90;7.07;;;;;;;13.30;100.00;95645.16;1044182;28;20028;-68
2021/08/26 02:17:25;;;;;;;11.20;6.77;;;;;;;13.32;100.00;95648.38;1044329;28;20051;-68
2021/08/26 02:17:55;;;;;;;16.47;7.63;;;;;;;13.33;100.00;95647.28;1044602;28;20021;-68
2021/08/26 02:18:25;;;;;;;12.17;6.70;;;;;;;13.33;100.00;95641.13;1044570;28;20013;-68
2021/08/26 02:18:56;;;;;;;13.23;6.97;;;;;;;13.33;100.00;95649.16;1044399;28;20029;-68
2021/08/26 02:19:26;;;;;;;14.13;7.10;;;;;;;13.36;100.00;95646.69;1044210;28;20021;-68
2021/08/26 02:19:57;;;;;;;16.23;8.27;;;;;;;13.33;100.00;95647.28;1044455;28;20104;-68
2021/08/26 02:20:27;;;;;;;15.20;8.07;;;;;;;13.36;100.00;95644.00;1044224;28;20033;-68
2021/08/26 02:20:58;;;;;;;14.87;7.03;;;;;;;13.34;100.00;95651.53;1044192;28;20509;-68
2021/08/26 02:21:28;;;;;;;13.70;6.60;;;;;;;13.37;100.00;95645.59;1044269;28;20482;-68
2021/08/26 02:21:59;;;;;;;11.10;7.13;;;;;;;13.41;100.00;95645.78;1044242;28;20421;-68
2021/08/26 02:22:29;;;;;;;14.17;7.10;;;;;;;13.42;100.00;95636.66;1044574;28;20033;-68
2021/08/26 02:22:59;;;;;;;11.67;7.10;;;;;;;13.41;100.00;95651.97;1044526;28;20025;-68
2021/08/26 02:23:30;;;;;;;14.27;7.30;;;;;;;13.41;100.00;95651.97;1044223;28;20107;-68
2021/08/26 02:24:00;;;;;;;11.90;7.13;;;;;;;13.43;100.00;95644.41;1044245;28;20060;-68
2021/08/26 02:24:31;;;;;;;11.23;6.90;;;;;;;13.43;100.00;95644.41;1044218;28;20462;-68
2021/08/26 02:25:01;;;;;;;13.57;7.60;;;;;;;13.45;100.00;95638.72;1044165;28;20028;-68
2021/08/26 02:25:32;;;;;;;12.13;7.53;;;;;;;13.44;100.00;95642.53;1044602;28;20095;-68
2021/08/26 02:26:02;;;;;;;16.63;7.20;;;;;;;13.46;100.00;95634.94;1044605;28;20021;-68
2021/08/26 02:26:33;;;;;;;12.77;7.23;;;;;;;13.47;100.00;95642.72;1044637;28;20029;-68
2021/08/26 02:27:03;;;;;;;11.93;7.10;;;;;;;13.46;100.00;95643.00;1044475;28;20113;-68
2021/08/26 02:27:33;;;;;;;13.20;6.97;;;;;;;13.47;100.00;95641.94;1044503;28;20032;-68
2021/08/26 02:28:04;;;;;;;14.23;7.40;;;;;;;13.45;100.00;95639.53;1044498;28;20029;-68
2021/08/26 02:28:35;;;;;;;13.80;7.40;;;;;;;13.45;100.00;95634.16;1044595;28;20393;-68
2021/08/26 02:29:06;;;;;;;14.00;7.33;;;;;;;13.48;100.00;95636.25;1043884;28;20030;-68
2021/08/26 02:29:36;;;;;;;12.70;7.63;;;;;;;13.50;100.00;95638.63;1043414;28;20029;-68
2021/08/26 02:30:07;;;;;;;13.67;7.60;;;;;;;13.52;100.00;95637.28;1040022;28;20033;-68